Weather observations for the past three days for
Easton Airport
| Date | Time (edt) | Wind (kph) | Vis. (km) | Weather | Sky Cond. | Temperature (ºC) | Relative Humidity | Wind Chill (°C) | Heat Index (°C) | Pressure | Precipitation (cm) | ||||||
|---|---|---|---|---|---|---|---|---|---|---|---|---|---|---|---|---|---|
| Air | Dwpt | 6 hour | altimeter (cm) | sea level (mb) | 1 hr | 3 hr | 6 hr | ||||||||||
| Max. | Min. | ||||||||||||||||
| 03 | 16:45 | NW 22 G 31 | 16.09 | Fair | CLR | 16 | -3 | 27% | 76.1 | 0.0 | |||||||
| 03 | 15:45 | W 17 G 46 | 16.09 | Fair | CLR | 15 | -3 | 29% | 76.15 | 0.0 | |||||||
| 03 | 14:45 | NW 28 G 35 | 16.09 | Fair | CLR | 15 | -4 | 27% | 76.17 | 0.0 | |||||||
| 03 | 13:45 | W 24 G 33 | 16.09 | A Few Clouds | FEW070 | 14 | -4 | 29% | 76.2 | 0.0 | |||||||
| 03 | 12:45 | W 15 G 31 | 16.09 | A Few Clouds | FEW065 | 13 | -4 | 31% | 76.23 | 0.0 | |||||||
| 03 | 11:45 | NW 30 G 43 | 16.09 | Fair | CLR | 13 | -4 | 31% | 76.25 | 0.0 | |||||||
| 03 | 10:45 | NW 28 G 37 | 16.09 | Fair | CLR | 11 | -3 | 38% | 76.25 | 0.0 | |||||||
| 03 | 09:45 | NW 30 G 37 | 16.09 | Fair | CLR | 10 | -2 | 43% | 7 | 76.25 | 0.0 | ||||||
| 03 | 08:50 | NW 39 G 59 | 16.09 | Fair and Breezy | CLR | 9 | -4 | 40% | 5 | 76.23 | 0.0 | ||||||
| 03 | 06:50 | NW 28 G 43 | 16.09 | Fair | CLR | 7 | -2 | 53% | 3 | 76.12 | 0.0 | ||||||
| 03 | 05:55 | NW 24 G 33 | 14.48 | Fair | CLR | 6.8 | -0.2 | 61% | 3 | 76.05 | 0.0 | ||||||
| 03 | 05:50 | NW 26 G 41 | 16.09 | Fair | CLR | 7 | -2 | 53% | 3 | 76.05 | 0.0 | ||||||
| 03 | 05:35 | NW 19 | 16.09 | Fair | CLR | 7 | 0 | 61% | 4 | 76.05 | 0.0 | ||||||
| 03 | 05:15 | NW 20 | 16.09 | Fair | CLR | 7 | 0.5 | 64% | 4 | 76.05 | 0.0 | ||||||
| 03 | 04:55 | NW 17 | 16.09 | Fair | CLR | 7.2 | 0.6 | 63% | 5 | 76.02 | 0.0 | ||||||
| 03 | 04:35 | NW 20 | 16.09 | Fair | CLR | 7.5 | 0.7 | 62% | 4 | 76.02 | 0.0 | ||||||
| 03 | 04:15 | NW 17 | 16.09 | Fair | CLR | 7.6 | 1 | 63% | 5 | 76 | 0.0 | ||||||
| 03 | 03:55 | NW 19 | 16.09 | Fair | CLR | 8 | 0.7 | 60% | 5 | 76 | 0.0 | ||||||
| 03 | 03:35 | NW 17 | 14.48 | Fair | CLR | 7.8 | 0.6 | 61% | 5 | 75.97 | 0.0 | ||||||
| 03 | 03:15 | NW 17 | 16.09 | Fair | CLR | 8 | 0.6 | 60% | 6 | 75.97 | 0.0 | ||||||
| 03 | 02:55 | NW 17 | 16.09 | Fair | CLR | 8.7 | 0.2 | 56% | 6 | 75.95 | 0.0 | ||||||
| 03 | 02:35 | NW 13 | 16.09 | Fair | CLR | 7.7 | 0.5 | 61% | 6 | 75.95 | 0.0 | ||||||
| 03 | 02:15 | NW 13 | 16.09 | Fair | CLR | 8.6 | 0.1 | 55% | 7 | 75.95 | 0.0 | ||||||
| 03 | 01:55 | NW 11 | 16.09 | Fair | CLR | 9.5 | -0.2 | 13.6 | 9.4 | 51% | 8 | 75.97 | 0.0 | ||||
| 03 | 01:35 | NW 15 | 16.09 | Fair | CLR | 9.6 | 0.3 | 53% | 8 | 75.97 | 0.0 | ||||||
| 03 | 01:15 | NW 9 | 16.09 | Fair | CLR | 9.9 | 1 | 54% | 9 | 75.97 | 0.0 | ||||||
| 03 | 00:55 | NW 15 | 16.09 | Fair | CLR | 10.3 | 0.8 | 52% | 75.97 | 0.0 | |||||||
| 03 | 00:35 | NW 11 | 16.09 | Fair | CLR | 10.7 | 0.3 | 49% | 75.97 | 0.0 | |||||||
| 03 | 00:15 | NW 20 | 16.09 | Fair | CLR | 11.3 | 0.2 | 47% | 75.97 | 0.0 | |||||||
| 02 | 23:55 | N 19 G 31 | 16.09 | Fair | CLR | 11.9 | -0.2 | 44% | 75.97 | 0.0 | |||||||
| 02 | 23:35 | N 15 | 16.09 | Fair | CLR | 11.9 | -0.3 | 43% | 75.95 | 0.0 | |||||||
| 02 | 23:15 | N 9 | 16.09 | Fair | CLR | 11.9 | -0.3 | 43% | 75.95 | 0.0 | |||||||
| 02 | 22:55 | N 9 | 16.09 | Fair | CLR | 12.1 | -0.2 | 43% | 75.95 | 0.0 | |||||||
| 02 | 22:35 | N 11 | 16.09 | Fair | CLR | 12.3 | -0.3 | 42% | 75.95 | 0.0 | |||||||
| 02 | 22:15 | N 11 | 16.09 | Fair | CLR | 12.3 | -0.1 | 43% | 75.95 | 0.0 | |||||||
| 02 | 21:45 | N 9 | 16.09 | A Few Clouds | FEW075 | 13 | 0 | 41% | 75.95 | 0.0 | |||||||
| 02 | 20:45 | NW 7 | 16.09 | Partly Cloudy | SCT070 | 13 | 1 | 44% | 75.92 | 0.0 | |||||||
| 02 | 19:45 | N 7 | 14.48 | A Few Clouds | FEW080 | 14 | -1 | 36% | 75.87 | 0.0 | |||||||
| 02 | 18:45 | N 15 | 14.48 | Fair | CLR | 15 | -1 | 34% | 75.87 | 0.0 | |||||||
| 02 | 17:45 | N 17 | 16.09 | Partly Cloudy | SCT170 | 15 | -1 | 34% | 75.84 | 0.0 | |||||||
| 02 | 16:45 | NW 13 | 16.09 | Mostly Cloudy | BKN170 | 15 | -1 | 34% | 75.84 | 0.0 | |||||||
| 02 | 15:45 | NW 19 G 30 | 16.09 | Mostly Cloudy | BKN180 | 15 | 0 | 36% | 75.87 | 0.0 | |||||||
| 02 | 14:45 | NW 19 | 16.09 | A Few Clouds | FEW190 | 16 | -1 | 31% | 75.92 | 0.0 | |||||||
| 02 | 12:45 | NW 19 | 16.09 | Mostly Cloudy | BKN170 | 13 | 0 | 41% | 76.02 | 0.0 | |||||||
| 02 | 11:45 | N 17 | 16.09 | A Few Clouds | FEW170 | 13 | 1 | 44% | 76.07 | 0.0 | |||||||
| 02 | 10:45 | N 19 | 16.09 | Mostly Cloudy | BKN190 | 12 | 3 | 54% | 76.02 | 0.0 | |||||||
| 02 | 09:45 | N 15 | 16.09 | A Few Clouds | FEW380 | 12 | 4 | 58% | 76.02 | 0.0 | |||||||
| 02 | 08:45 | N 13 | 16.09 | Fair | CLR | 11 | 4 | 62% | 76.05 | 0.0 | |||||||
| 02 | 07:45 | N 20 | 16.09 | Fair | CLR | 11 | 3 | 58% | 76.05 | 0.0 | |||||||
| 02 | 06:45 | NW 15 | 16.09 | Fair | CLR | 10 | 6 | 76% | 8 | 76 | 0.0 | ||||||
| 02 | 05:55 | Calm | 16.09 | Fair | CLR | 9 | 8 | 94% | 75.97 | 0.0 | |||||||
| 02 | 05:35 | Calm | 16.09 | Fair | CLR | 8.9 | 7.5 | 91% | 75.95 | 0.0 | |||||||
| 02 | 05:15 | Calm | 16.09 | Fair | CLR | 9.3 | 7.8 | 90% | 75.95 | 0.0 | |||||||
| 02 | 04:55 | Calm | 16.09 | Fair | CLR | 9.3 | 7.8 | 90% | 75.95 | 0.0 | |||||||
| 02 | 04:35 | Calm | 16.09 | A Few Clouds | FEW120 | 9.2 | 7.7 | 90% | 75.92 | 0.0 | |||||||
| 02 | 04:15 | NE 6 | 16.09 | Partly Cloudy | SCT120 | 9.7 | 7.7 | 87% | 75.92 | 0.0 | |||||||
| 02 | 03:55 | N 6 | 16.09 | Mostly Cloudy | BKN110 | 10.1 | 7.9 | 86% | 75.92 | 0.0 | |||||||
| 02 | 03:15 | Calm | 16.09 | Mostly Cloudy | SCT055 BKN110 | 10.4 | 7.6 | 83% | 75.9 | 0.0 | |||||||
| 02 | 02:55 | Calm | 16.09 | Mostly Cloudy | SCT055 BKN110 | 10.7 | 7.8 | 82% | 75.92 | 0.0 | |||||||
| 02 | 02:35 | Calm | 16.09 | Partly Cloudy | SCT110 | 10.5 | 7.6 | 82% | 75.92 | 0.0 | |||||||
| 02 | 02:15 | S 7 | 16.09 | A Few Clouds | FEW060 | 10.6 | 7.4 | 81% | 75.95 | 0.0 | |||||||
| 02 | 01:55 | S 7 | 16.09 | A Few Clouds | FEW060 | 11.3 | 7.4 | 14.9 | 11.2 | 77% | 75.95 | 0.0 | |||||
| 02 | 01:35 | S 9 | 16.09 | Fair | CLR | 11.3 | 7.2 | 76% | 75.97 | 0.0 | |||||||
| 02 | 01:15 | S 11 | 16.09 | A Few Clouds | FEW100 | 11.5 | 7 | 74% | 75.95 | 0.0 | |||||||
| 02 | 00:55 | S 15 | 16.09 | Fair | CLR | 11.7 | 6.8 | 72% | 75.95 | 0.0 | |||||||
| 02 | 00:35 | S 13 | 16.09 | A Few Clouds | FEW100 | 11.8 | 6.9 | 72% | 75.95 | 0.0 | |||||||
| 02 | 00:15 | S 15 | 16.09 | Partly Cloudy | SCT100 SCT130 | 12 | 6.9 | 71% | 75.95 | 0.0 | |||||||
| 01 | 23:55 | S 13 | 16.09 | Mostly Cloudy | BKN120 | 12.1 | 6.9 | 71% | 75.95 | 0.0 | |||||||
| 01 | 23:35 | S 11 | 16.09 | Mostly Cloudy | BKN120 | 12.1 | 7 | 71% | 75.95 | 0.0 | |||||||
| 01 | 23:15 | S 11 | 16.09 | Mostly Cloudy | BKN130 | 12.1 | 7.5 | 74% | 75.92 | 0.0 | |||||||
| 01 | 22:55 | S 11 | 16.09 | A Few Clouds | FEW130 | 11.9 | 7.2 | 73% | 75.92 | 0.0 | |||||||
| 01 | 22:35 | S 15 | 16.09 | Partly Cloudy | SCT130 | 12.5 | 7 | 69% | 75.95 | 0.0 | |||||||
| 01 | 22:15 | S 15 | 16.09 | Partly Cloudy | SCT130 | 12.7 | 6.4 | 66% | 75.95 | 0.0 | |||||||
| 01 | 21:45 | SE 15 | 16.09 | A Few Clouds | FEW120 | 13 | 5 | 59% | 75.92 | 0.0 | |||||||
| 01 | 20:45 | SE 13 | 16.09 | Fair | CLR | 13 | 4 | 55% | 75.92 | 0.0 | |||||||
| 01 | 19:45 | S 15 | 16.09 | Fair | CLR | 16 | 1 | 36% | 75.87 | 0.0 | |||||||
| 01 | 18:45 | S 13 | 16.09 | Fair | CLR | 17 | 0 | 32% | 75.87 | 0.0 | |||||||
| 01 | 17:45 | SW 15 | 16.09 | Fair | CLR | 18 | -1 | 28% | 75.9 | 0.0 | |||||||
| 01 | 16:50 | SW 17 | 16.09 | Fair | CLR | 18 | -2 | 26% | 75.92 | 0.0 | |||||||
| 01 | 15:45 | S 22 | 16.09 | Fair | CLR | 18 | -2 | 26% | 75.95 | 0.0 | |||||||
| 01 | 14:45 | NW 15 | 16.09 | Fair | CLR | 17 | 0 | 32% | 76 | 0.0 | |||||||
| 01 | 13:45 | W 19 G 35 | 16.09 | Fair | CLR | 16 | 0 | 34% | 76.05 | 0.0 | |||||||
| 01 | 12:50 | W 11 | 16.09 | Fair | CLR | 16 | -2 | 29% | 76.05 | 0.0 | |||||||
| 01 | 11:50 | NE 7 | 16.09 | Fair | CLR | 16 | -3 | 27% | 76.12 | 0.0 | |||||||
| 01 | 10:45 | W 6 | 16.09 | Fair | CLR | 15 | -2 | 31% | 76.17 | 0.0 | |||||||
| 01 | 09:45 | N 11 | 16.09 | Fair | CLR | 14 | 0 | 39% | 76.17 | 0.0 | |||||||
| 01 | 08:45 | Vrbl 11 | 16.09 | Fair | CLR | 12 | 2 | 51% | 76.2 | 0.0 | |||||||
| 01 | 07:45 | NW 6 | 16.09 | Fair | CLR | 10 | 5 | 71% | 76.17 | 0.0 | |||||||
| 01 | 06:45 | Calm | 16.09 | Fair | CLR | 6 | 3 | 81% | 76.15 | 0.0 | |||||||
| 01 | 05:55 | N 6 | 16.09 | Fair | CLR | 7 | 3 | 76% | 76.12 | 0.0 | |||||||
| 01 | 05:35 | Calm | 16.09 | Fair | CLR | 6.5 | 3 | 79% | 76.12 | 0.0 | |||||||
| 01 | 05:15 | Calm | 16.09 | Fair | CLR | 6.3 | 3.1 | 80% | 76.12 | 0.0 | |||||||
| 01 | 04:55 | Calm | 16.09 | Fair | CLR | 7.1 | 3 | 75% | 76.12 | 0.0 | |||||||
| 01 | 04:35 | NW 6 | 16.09 | Fair | CLR | 8.9 | 3.1 | 67% | 76.1 | 0.0 | |||||||
| 01 | 04:15 | NW 7 | 16.09 | Fair | CLR | 8.5 | 3 | 69% | 8 | 76.1 | 0.0 | ||||||
| 01 | 03:55 | NW 11 | 16.09 | Fair | CLR | 9 | 3.3 | 68% | 8 | 76.07 | 0.0 | ||||||
| 01 | 03:35 | Calm | 16.09 | Fair | CLR | 8.9 | 3.2 | 68% | 76.07 | 0.0 | |||||||
| 01 | 03:15 | NW 9 | 16.09 | Fair | CLR | 8.6 | 3.2 | 69% | 7 | 76.07 | 0.0 | ||||||
| 01 | 02:55 | NW 7 | 16.09 | Fair | CLR | 9 | 3.3 | 68% | 8 | 76.05 | 0.0 | ||||||
| 01 | 02:35 | NW 11 | 16.09 | Fair | CLR | 9.2 | 3.3 | 67% | 8 | 76.02 | 0.0 | ||||||
| 01 | 02:15 | NW 9 | 16.09 | Fair | CLR | 9.4 | 3.1 | 65% | 8 | 76.02 | 0.0 | ||||||
| 01 | 01:35 | NW 11 | 16.09 | Fair | CLR | 10.4 | 2.9 | 60% | 76 | 0.0 | |||||||
| 01 | 00:55 | NW 9 | 16.09 | Fair | CLR | 10.1 | 3.4 | 63% | 76.02 | 0.0 | |||||||
| 01 | 00:35 | NW 17 | 16.09 | Fair | CLR | 9.9 | 3.4 | 64% | 8 | 76.02 | 0.0 | ||||||
| 01 | 00:15 | NW 9 | 16.09 | Fair | CLR | 10.9 | 3 | 58% | 76.02 | 0.0 | |||||||
| 30 | 23:55 | NW 22 G 30 | 16.09 | Fair | CLR | 11.3 | 3 | 57% | 76 | 0.0 | |||||||
| 30 | 23:35 | NW 15 | 16.09 | Fair | CLR | 11.2 | 3.2 | 58% | 76 | 0.0 | |||||||
| 30 | 23:15 | NW 13 | 16.09 | Fair | CLR | 11.1 | 3.6 | 60% | 75.97 | 0.0 | |||||||
| 30 | 22:55 | NW 17 | 16.09 | Fair | CLR | 11.8 | 3.3 | 56% | 76 | 0.0 | |||||||
| 30 | 22:35 | NW 11 | 16.09 | Fair | CLR | 12.2 | 3.5 | 56% | 76 | 0.0 | |||||||
| 30 | 21:50 | NW 28 G 57 | 16.09 | Fair | CLR | 14 | 1 | 41% | 75.95 | 0.0 | |||||||
| 30 | 20:50 | NW 30 G 48 | 16.09 | Mostly Cloudy | BKN095 | 16 | 3 | 42% | 75.82 | 0.0 | |||||||
| 30 | 19:50 | NW 26 G 43 | 16.09 | Partly Cloudy | SCT095 | 17 | 2 | 37% | 75.72 | 0.0 | |||||||
| 30 | 18:50 | NW 17 G 35 | 16.09 | Partly Cloudy | SCT090 | 19 | 0 | 28% | 75.67 | 0.0 | |||||||
| 30 | 17:45 | NW 15 G 37 | 16.09 | Partly Cloudy | SCT075 | 20 | 0 | 26% | 75.62 | 0.0 | |||||||
| Date | Time (edt) | Wind (kph) | Vis. (km) | Weather | Sky Cond. | Air | Dwpt | Max. | Min. | Relative Humidity | Wind Chill (°C) | Heat Index (°C) | altimeter (cm) | sea level (mb) | 1 hr | 3 hr | 6 hr |
| 6 hour | |||||||||||||||||
| Temperature (ºC) | Pressure | Precipitation (cm) | |||||||||||||||